sensor_id;sensor_type;location;lat;lon;timestamp;temperature;humidity
26621;DHT22;14253;44.840;10.444;2023-11-22T00:01:06;8.40;99.90
26621;DHT22;14253;44.840;10.444;2023-11-22T00:03:32;8.30;99.90
26621;DHT22;14253;44.840;10.444;2023-11-22T00:05:58;8.20;99.90
26621;DHT22;14253;44.840;10.444;2023-11-22T00:08:24;8.20;99.90
26621;DHT22;14253;44.840;10.444;2023-11-22T00:10:50;8.10;99.90
26621;DHT22;14253;44.840;10.444;2023-11-22T00:13:16;8.10;99.90
26621;DHT22;14253;44.840;10.444;2023-11-22T00:15:42;8.10;99.90
26621;DHT22;14253;44.840;10.444;2023-11-22T00:18:08;8.00;99.90
26621;DHT22;14253;44.840;10.444;2023-11-22T00:20:34;7.90;99.90
26621;DHT22;14253;44.840;10.444;2023-11-22T00:23:00;7.90;99.90
26621;DHT22;14253;44.840;10.444;2023-11-22T00:25:26;7.80;99.90
26621;DHT22;14253;44.840;10.444;2023-11-22T00:27:52;7.80;99.90
26621;DHT22;14253;44.840;10.444;2023-11-22T00:30:18;7.80;99.90
26621;DHT22;14253;44.840;10.444;2023-11-22T00:32:44;7.70;99.90
26621;DHT22;14253;44.840;10.444;2023-11-22T00:35:10;7.70;99.90
26621;DHT22;14253;44.840;10.444;2023-11-22T00:37:36;7.70;99.90
26621;DHT22;14253;44.840;10.444;2023-11-22T00:40:02;7.60;99.90
26621;DHT22;14253;44.840;10.444;2023-11-22T00:42:39;7.60;99.90
26621;DHT22;14253;44.840;10.444;2023-11-22T00:45:09;7.60;99.90
26621;DHT22;14253;44.840;10.444;2023-11-22T00:47:37;7.50;99.90
26621;DHT22;14253;44.840;10.444;2023-11-22T00:50:03;7.50;99.90
26621;DHT22;14253;44.840;10.444;2023-11-22T00:52:30;7.50;99.90
26621;DHT22;14253;44.840;10.444;2023-11-22T00:54:57;7.40;99.90
26621;DHT22;14253;44.840;10.444;2023-11-22T00:57:23;7.40;99.90
26621;DHT22;14253;44.840;10.444;2023-11-22T00:59:49;7.30;99.90
26621;DHT22;14253;44.840;10.444;2023-11-22T01:02:16;7.30;99.90
26621;DHT22;14253;44.840;10.444;2023-11-22T01:04:42;7.20;99.90
26621;DHT22;14253;44.840;10.444;2023-11-22T01:07:08;7.20;99.90
26621;DHT22;14253;44.840;10.444;2023-11-22T01:09:34;7.20;99.90
26621;DHT22;14253;44.840;10.444;2023-11-22T01:12:00;7.20;99.90
26621;DHT22;14253;44.840;10.444;2023-11-22T01:14:26;7.20;99.90
26621;DHT22;14253;44.840;10.444;2023-11-22T01:16:53;7.20;99.90
26621;DHT22;14253;44.840;10.444;2023-11-22T01:19:22;7.20;99.90
26621;DHT22;14253;44.840;10.444;2023-11-22T01:21:48;7.20;99.90
26621;DHT22;14253;44.840;10.444;2023-11-22T01:24:14;7.30;99.90
26621;DHT22;14253;44.840;10.444;2023-11-22T01:26:40;7.30;99.90
26621;DHT22;14253;44.840;10.444;2023-11-22T01:29:06;7.30;99.90
26621;DHT22;14253;44.840;10.444;2023-11-22T01:31:32;7.20;99.90
26621;DHT22;14253;44.840;10.444;2023-11-22T01:33:59;7.20;99.90
26621;DHT22;14253;44.840;10.444;2023-11-22T01:36:26;7.20;99.90
26621;DHT22;14253;44.840;10.444;2023-11-22T01:38:53;7.10;99.90
26621;DHT22;14253;44.840;10.444;2023-11-22T01:41:19;7.10;99.90
26621;DHT22;14253;44.840;10.444;2023-11-22T01:43:45;7.10;99.90
26621;DHT22;14253;44.840;10.444;2023-11-22T01:46:22;7.10;99.90
26621;DHT22;14253;44.840;10.444;2023-11-22T01:48:50;7.10;99.90
26621;DHT22;14253;44.840;10.444;2023-11-22T01:51:20;7.20;99.90
26621;DHT22;14253;44.840;10.444;2023-11-22T01:53:47;7.10;99.90
26621;DHT22;14253;44.840;10.444;2023-11-22T01:56:14;7.00;99.90
26621;DHT22;14253;44.840;10.444;2023-11-22T01:58:42;7.00;99.90
26621;DHT22;14253;44.840;10.444;2023-11-22T02:01:09;7.00;99.90
26621;DHT22;14253;44.840;10.444;2023-11-22T02:03:38;7.00;99.90
26621;DHT22;14253;44.840;10.444;2023-11-22T02:06:05;7.10;99.90
26621;DHT22;14253;44.840;10.444;2023-11-22T02:08:31;7.00;99.90
26621;DHT22;14253;44.840;10.444;2023-11-22T02:10:58;7.00;99.90
26621;DHT22;14253;44.840;10.444;2023-11-22T02:13:24;6.90;99.90
26621;DHT22;14253;44.840;10.444;2023-11-22T02:15:50;6.90;99.90
26621;DHT22;14253;44.840;10.444;2023-11-22T02:18:18;6.90;99.90
26621;DHT22;14253;44.840;10.444;2023-11-22T02:20:44;6.80;99.90
26621;DHT22;14253;44.840;10.444;2023-11-22T02:23:10;6.70;99.90
26621;DHT22;14253;44.840;10.444;2023-11-22T02:25:37;6.70;99.90
26621;DHT22;14253;44.840;10.444;2023-11-22T02:28:03;6.80;99.90
26621;DHT22;14253;44.840;10.444;2023-11-22T02:30:30;6.80;99.90
26621;DHT22;14253;44.840;10.444;2023-11-22T02:32:57;6.80;99.90
26621;DHT22;14253;44.840;10.444;2023-11-22T02:35:23;6.80;99.90
26621;DHT22;14253;44.840;10.444;2023-11-22T02:37:49;6.80;99.90
26621;DHT22;14253;44.840;10.444;2023-11-22T02:40:19;6.80;99.90
26621;DHT22;14253;44.840;10.444;2023-11-22T02:42:50;6.80;99.90
26621;DHT22;14253;44.840;10.444;2023-11-22T02:45:17;6.70;99.90
26621;DHT22;14253;44.840;10.444;2023-11-22T02:47:44;6.70;99.90
26621;DHT22;14253;44.840;10.444;2023-11-22T02:50:15;6.70;99.90
26621;DHT22;14253;44.840;10.444;2023-11-22T02:52:42;6.70;99.90
26621;DHT22;14253;44.840;10.444;2023-11-22T02:55:09;6.70;99.90
26621;DHT22;14253;44.840;10.444;2023-11-22T02:57:36;6.70;99.90
26621;DHT22;14253;44.840;10.444;2023-11-22T03:00:09;6.70;99.90
26621;DHT22;14253;44.840;10.444;2023-11-22T03:02:39;6.70;99.90
26621;DHT22;14253;44.840;10.444;2023-11-22T03:05:08;6.70;99.90
26621;DHT22;14253;44.840;10.444;2023-11-22T03:07:35;6.70;99.90
26621;DHT22;14253;44.840;10.444;2023-11-22T03:10:02;6.70;99.90
26621;DHT22;14253;44.840;10.444;2023-11-22T03:12:28;6.60;99.90
26621;DHT22;14253;44.840;10.444;2023-11-22T03:14:54;6.50;99.90
26621;DHT22;14253;44.840;10.444;2023-11-22T03:17:27;6.50;99.90
26621;DHT22;14253;44.840;10.444;2023-11-22T03:19:57;6.40;99.90
26621;DHT22;14253;44.840;10.444;2023-11-22T03:22:27;6.50;99.90
26621;DHT22;14253;44.840;10.444;2023-11-22T03:24:57;6.50;99.90
26621;DHT22;14253;44.840;10.444;2023-11-22T03:27:24;6.50;99.90
26621;DHT22;14253;44.840;10.444;2023-11-22T03:29:51;6.50;99.90
26621;DHT22;14253;44.840;10.444;2023-11-22T03:32:17;6.60;99.90
26621;DHT22;14253;44.840;10.444;2023-11-22T03:34:44;6.50;99.90
26621;DHT22;14253;44.840;10.444;2023-11-22T03:37:10;6.50;99.90
26621;DHT22;14253;44.840;10.444;2023-11-22T03:39:36;6.50;99.90
26621;DHT22;14253;44.840;10.444;2023-11-22T03:42:03;6.50;99.90
26621;DHT22;14253;44.840;10.444;2023-11-22T03:44:29;6.40;99.90
26621;DHT22;14253;44.840;10.444;2023-11-22T03:46:56;6.40;99.90
26621;DHT22;14253;44.840;10.444;2023-11-22T03:49:22;6.40;99.90
26621;DHT22;14253;44.840;10.444;2023-11-22T03:51:48;6.40;99.90
26621;DHT22;14253;44.840;10.444;2023-11-22T03:54:14;6.30;99.90
26621;DHT22;14253;44.840;10.444;2023-11-22T03:56:40;6.30;99.90
26621;DHT22;14253;44.840;10.444;2023-11-22T03:59:06;6.30;99.90
26621;DHT22;14253;44.840;10.444;2023-11-22T04:01:33;6.30;99.90
26621;DHT22;14253;44.840;10.444;2023-11-22T04:03:59;6.30;99.90
26621;DHT22;14253;44.840;10.444;2023-11-22T04:06:25;6.20;99.90
26621;DHT22;14253;44.840;10.444;2023-11-22T04:08:51;6.20;99.90
26621;DHT22;14253;44.840;10.444;2023-11-22T04:11:19;6.20;99.90
26621;DHT22;14253;44.840;10.444;2023-11-22T04:13:45;6.20;99.90
26621;DHT22;14253;44.840;10.444;2023-11-22T04:16:11;6.20;99.90
26621;DHT22;14253;44.840;10.444;2023-11-22T04:18:39;6.20;99.90
26621;DHT22;14253;44.840;10.444;2023-11-22T04:21:08;6.10;99.90
26621;DHT22;14253;44.840;10.444;2023-11-22T04:23:35;6.20;99.90
26621;DHT22;14253;44.840;10.444;2023-11-22T04:26:02;6.20;99.90
26621;DHT22;14253;44.840;10.444;2023-11-22T04:28:29;6.10;99.90
26621;DHT22;14253;44.840;10.444;2023-11-22T04:30:58;6.10;99.90
26621;DHT22;14253;44.840;10.444;2023-11-22T04:33:24;6.00;99.90
26621;DHT22;14253;44.840;10.444;2023-11-22T04:35:51;6.10;99.90
26621;DHT22;14253;44.840;10.444;2023-11-22T04:38:17;6.10;99.90
26621;DHT22;14253;44.840;10.444;2023-11-22T04:40:44;6.00;99.90
26621;DHT22;14253;44.840;10.444;2023-11-22T04:43:10;6.00;99.90
26621;DHT22;14253;44.840;10.444;2023-11-22T04:45:36;6.00;99.90
26621;DHT22;14253;44.840;10.444;2023-11-22T04:48:05;6.00;99.90
26621;DHT22;14253;44.840;10.444;2023-11-22T04:50:35;6.10;99.90
26621;DHT22;14253;44.840;10.444;2023-11-22T04:53:01;6.10;99.90
26621;DHT22;14253;44.840;10.444;2023-11-22T04:55:27;6.00;99.90
26621;DHT22;14253;44.840;10.444;2023-11-22T04:57:54;5.90;99.90
26621;DHT22;14253;44.840;10.444;2023-11-22T05:00:23;5.90;99.90
26621;DHT22;14253;44.840;10.444;2023-11-22T05:02:49;5.90;99.90
26621;DHT22;14253;44.840;10.444;2023-11-22T05:05:15;5.90;99.90
26621;DHT22;14253;44.840;10.444;2023-11-22T05:07:42;5.90;99.90
26621;DHT22;14253;44.840;10.444;2023-11-22T05:10:09;5.80;99.90
26621;DHT22;14253;44.840;10.444;2023-11-22T05:12:35;5.90;99.90
26621;DHT22;14253;44.840;10.444;2023-11-22T05:15:02;5.80;99.90
26621;DHT22;14253;44.840;10.444;2023-11-22T05:17:28;5.70;99.90
26621;DHT22;14253;44.840;10.444;2023-11-22T05:19:55;5.60;99.90
26621;DHT22;14253;44.840;10.444;2023-11-22T05:22:21;5.50;99.90
26621;DHT22;14253;44.840;10.444;2023-11-22T05:24:49;5.50;99.90
26621;DHT22;14253;44.840;10.444;2023-11-22T05:27:15;5.50;99.90
26621;DHT22;14253;44.840;10.444;2023-11-22T05:29:41;5.40;99.90
26621;DHT22;14253;44.840;10.444;2023-11-22T05:32:08;5.40;99.90
26621;DHT22;14253;44.840;10.444;2023-11-22T05:34:34;5.50;99.90
26621;DHT22;14253;44.840;10.444;2023-11-22T05:37:00;5.60;99.90
26621;DHT22;14253;44.840;10.444;2023-11-22T05:39:26;5.60;99.90
26621;DHT22;14253;44.840;10.444;2023-11-22T05:41:53;5.60;99.90
26621;DHT22;14253;44.840;10.444;2023-11-22T05:44:19;5.70;99.90
26621;DHT22;14253;44.840;10.444;2023-11-22T05:46:45;5.80;99.90
26621;DHT22;14253;44.840;10.444;2023-11-22T05:49:12;5.70;99.90
26621;DHT22;14253;44.840;10.444;2023-11-22T05:51:37;5.70;99.90
26621;DHT22;14253;44.840;10.444;2023-11-22T05:54:04;5.70;99.90
26621;DHT22;14253;44.840;10.444;2023-11-22T05:56:30;5.60;99.90
26621;DHT22;14253;44.840;10.444;2023-11-22T05:58:57;5.70;99.90
26621;DHT22;14253;44.840;10.444;2023-11-22T06:01:23;5.60;99.90
26621;DHT22;14253;44.840;10.444;2023-11-22T06:03:49;5.60;99.90
26621;DHT22;14253;44.840;10.444;2023-11-22T06:06:15;5.60;99.90
26621;DHT22;14253;44.840;10.444;2023-11-22T06:08:41;5.60;99.90
26621;DHT22;14253;44.840;10.444;2023-11-22T06:11:08;5.50;99.90
26621;DHT22;14253;44.840;10.444;2023-11-22T06:13:34;5.50;99.90
26621;DHT22;14253;44.840;10.444;2023-11-22T06:16:00;5.60;99.90
26621;DHT22;14253;44.840;10.444;2023-11-22T06:18:26;5.60;99.90
26621;DHT22;14253;44.840;10.444;2023-11-22T06:20:58;5.60;99.90
26621;DHT22;14253;44.840;10.444;2023-11-22T06:23:25;5.60;99.90
26621;DHT22;14253;44.840;10.444;2023-11-22T06:25:51;5.70;99.90
26621;DHT22;14253;44.840;10.444;2023-11-22T06:28:17;5.60;99.90
26621;DHT22;14253;44.840;10.444;2023-11-22T06:30:43;5.60;99.90
26621;DHT22;14253;44.840;10.444;2023-11-22T06:33:09;5.60;99.90
26621;DHT22;14253;44.840;10.444;2023-11-22T06:35:35;5.60;99.90
26621;DHT22;14253;44.840;10.444;2023-11-22T06:38:03;5.60;99.90
26621;DHT22;14253;44.840;10.444;2023-11-22T06:40:29;5.70;99.90
26621;DHT22;14253;44.840;10.444;2023-11-22T06:42:55;5.70;99.90
26621;DHT22;14253;44.840;10.444;2023-11-22T06:45:22;5.60;99.90
26621;DHT22;14253;44.840;10.444;2023-11-22T06:47:47;5.60;99.90
26621;DHT22;14253;44.840;10.444;2023-11-22T06:50:15;5.60;99.90
26621;DHT22;14253;44.840;10.444;2023-11-22T06:52:42;5.60;99.90
26621;DHT22;14253;44.840;10.444;2023-11-22T06:55:09;5.70;99.90
26621;DHT22;14253;44.840;10.444;2023-11-22T06:57:36;5.70;99.90
26621;DHT22;14253;44.840;10.444;2023-11-22T07:00:06;5.70;99.90
26621;DHT22;14253;44.840;10.444;2023-11-22T07:02:35;5.80;99.90
26621;DHT22;14253;44.840;10.444;2023-11-22T07:05:02;5.80;99.90
26621;DHT22;14253;44.840;10.444;2023-11-22T07:07:29;5.80;99.90
26621;DHT22;14253;44.840;10.444;2023-11-22T07:09:55;5.90;99.90
26621;DHT22;14253;44.840;10.444;2023-11-22T07:12:25;5.90;99.90
26621;DHT22;14253;44.840;10.444;2023-11-22T07:14:52;5.90;99.90
26621;DHT22;14253;44.840;10.444;2023-11-22T07:17:18;5.90;99.90
26621;DHT22;14253;44.840;10.444;2023-11-22T07:19:45;5.90;99.90
26621;DHT22;14253;44.840;10.444;2023-11-22T07:22:17;5.90;99.90
26621;DHT22;14253;44.840;10.444;2023-11-22T07:24:46;5.80;99.90
26621;DHT22;14253;44.840;10.444;2023-11-22T07:27:14;5.80;99.90
26621;DHT22;14253;44.840;10.444;2023-11-22T07:29:41;5.80;99.90
26621;DHT22;14253;44.840;10.444;2023-11-22T07:32:07;5.70;99.90
26621;DHT22;14253;44.840;10.444;2023-11-22T07:34:38;5.70;99.90
26621;DHT22;14253;44.840;10.444;2023-11-22T07:37:08;5.70;99.90
26621;DHT22;14253;44.840;10.444;2023-11-22T07:39:35;5.80;99.90
26621;DHT22;14253;44.840;10.444;2023-11-22T07:42:02;5.80;99.90
26621;DHT22;14253;44.840;10.444;2023-11-22T07:44:28;5.90;99.90
26621;DHT22;14253;44.840;10.444;2023-11-22T07:46:58;6.00;99.90
26621;DHT22;14253;44.840;10.444;2023-11-22T07:49:25;6.00;99.90
26621;DHT22;14253;44.840;10.444;2023-11-22T07:51:51;6.00;99.90
26621;DHT22;14253;44.840;10.444;2023-11-22T07:54:19;6.00;99.90
26621;DHT22;14253;44.840;10.444;2023-11-22T07:56:49;6.00;99.90
26621;DHT22;14253;44.840;10.444;2023-11-22T07:59:15;6.10;99.90
26621;DHT22;14253;44.840;10.444;2023-11-22T08:01:44;6.20;99.90
26621;DHT22;14253;44.840;10.444;2023-11-22T08:04:10;6.30;99.90
26621;DHT22;14253;44.840;10.444;2023-11-22T08:06:36;6.40;99.90
26621;DHT22;14253;44.840;10.444;2023-11-22T08:09:03;6.40;99.90
26621;DHT22;14253;44.840;10.444;2023-11-22T08:11:30;6.50;99.90
26621;DHT22;14253;44.840;10.444;2023-11-22T08:14:00;6.70;99.90
26621;DHT22;14253;44.840;10.444;2023-11-22T08:16:26;6.80;99.90
26621;DHT22;14253;44.840;10.444;2023-11-22T08:18:52;6.90;99.90
26621;DHT22;14253;44.840;10.444;2023-11-22T08:21:18;7.00;99.90
26621;DHT22;14253;44.840;10.444;2023-11-22T08:23:47;7.10;99.90
26621;DHT22;14253;44.840;10.444;2023-11-22T08:26:14;7.20;99.90
26621;DHT22;14253;44.840;10.444;2023-11-22T08:28:41;7.30;99.90
26621;DHT22;14253;44.840;10.444;2023-11-22T08:31:07;7.40;99.90
26621;DHT22;14253;44.840;10.444;2023-11-22T08:33:37;7.60;99.90
26621;DHT22;14253;44.840;10.444;2023-11-22T08:36:04;7.60;99.90
26621;DHT22;14253;44.840;10.444;2023-11-22T08:38:31;7.80;99.90
26621;DHT22;14253;44.840;10.444;2023-11-22T08:41:06;7.90;99.90
26621;DHT22;14253;44.840;10.444;2023-11-22T08:43:32;8.00;99.90
26621;DHT22;14253;44.840;10.444;2023-11-22T08:45:59;8.10;99.90
26621;DHT22;14253;44.840;10.444;2023-11-22T08:48:25;8.20;99.90
26621;DHT22;14253;44.840;10.444;2023-11-22T08:50:51;8.30;99.90
26621;DHT22;14253;44.840;10.444;2023-11-22T08:53:19;8.40;99.90
26621;DHT22;14253;44.840;10.444;2023-11-22T08:55:47;8.40;99.90
26621;DHT22;14253;44.840;10.444;2023-11-22T08:58:13;8.50;99.90
26621;DHT22;14253;44.840;10.444;2023-11-22T09:00:40;8.60;99.90
26621;DHT22;14253;44.840;10.444;2023-11-22T09:03:08;8.70;99.90
26621;DHT22;14253;44.840;10.444;2023-11-22T09:05:34;8.80;99.90
26621;DHT22;14253;44.840;10.444;2023-11-22T09:08:00;8.90;99.90
26621;DHT22;14253;44.840;10.444;2023-11-22T09:10:26;9.00;99.90
26621;DHT22;14253;44.840;10.444;2023-11-22T09:12:52;9.10;99.90
26621;DHT22;14253;44.840;10.444;2023-11-22T09:15:18;9.20;99.90
26621;DHT22;14253;44.840;10.444;2023-11-22T09:17:52;9.20;99.90
26621;DHT22;14253;44.840;10.444;2023-11-22T09:20:19;9.20;99.90
26621;DHT22;14253;44.840;10.444;2023-11-22T09:22:50;9.20;99.90
26621;DHT22;14253;44.840;10.444;2023-11-22T09:25:17;9.40;99.90
26621;DHT22;14253;44.840;10.444;2023-11-22T09:27:45;9.40;99.90
26621;DHT22;14253;44.840;10.444;2023-11-22T09:30:13;9.50;99.90
26621;DHT22;14253;44.840;10.444;2023-11-22T09:32:45;9.50;99.90
26621;DHT22;14253;44.840;10.444;2023-11-22T09:35:14;9.50;99.90
26621;DHT22;14253;44.840;10.444;2023-11-22T09:37:41;9.50;99.90
26621;DHT22;14253;44.840;10.444;2023-11-22T09:40:08;9.60;99.90
26621;DHT22;14253;44.840;10.444;2023-11-22T09:42:35;9.70;99.90
26621;DHT22;14253;44.840;10.444;2023-11-22T09:45:02;9.80;99.90
26621;DHT22;14253;44.840;10.444;2023-11-22T09:47:32;9.80;99.90
26621;DHT22;14253;44.840;10.444;2023-11-22T09:50:01;9.80;99.90
26621;DHT22;14253;44.840;10.444;2023-11-22T09:52:32;9.80;99.90
26621;DHT22;14253;44.840;10.444;2023-11-22T09:55:01;9.90;99.90
26621;DHT22;14253;44.840;10.444;2023-11-22T09:57:29;10.00;99.90
26621;DHT22;14253;44.840;10.444;2023-11-22T09:59:57;10.00;99.90
26621;DHT22;14253;44.840;10.444;2023-11-22T10:02:24;10.10;99.90
26621;DHT22;14253;44.840;10.444;2023-11-22T10:04:54;10.10;99.90
26621;DHT22;14253;44.840;10.444;2023-11-22T10:07:20;10.10;99.90
26621;DHT22;14253;44.840;10.444;2023-11-22T10:09:46;10.30;99.90
26621;DHT22;14253;44.840;10.444;2023-11-22T10:12:19;10.30;99.90
26621;DHT22;14253;44.840;10.444;2023-11-22T10:14:48;10.50;99.90
26621;DHT22;14253;44.840;10.444;2023-11-22T10:17:14;10.50;99.90
26621;DHT22;14253;44.840;10.444;2023-11-22T10:19:42;10.60;99.90
26621;DHT22;14253;44.840;10.444;2023-11-22T10:22:08;10.70;99.90
26621;DHT22;14253;44.840;10.444;2023-11-22T10:24:35;10.70;99.90
26621;DHT22;14253;44.840;10.444;2023-11-22T10:27:02;10.80;99.90
26621;DHT22;14253;44.840;10.444;2023-11-22T10:29:29;10.90;99.90
26621;DHT22;14253;44.840;10.444;2023-11-22T10:31:55;11.00;99.90
26621;DHT22;14253;44.840;10.444;2023-11-22T10:34:25;11.10;99.90
26621;DHT22;14253;44.840;10.444;2023-11-22T10:36:51;11.10;99.90
26621;DHT22;14253;44.840;10.444;2023-11-22T10:39:21;11.20;99.90
26621;DHT22;14253;44.840;10.444;2023-11-22T10:41:47;11.30;99.90
26621;DHT22;14253;44.840;10.444;2023-11-22T10:44:16;11.30;99.90
26621;DHT22;14253;44.840;10.444;2023-11-22T10:46:44;11.50;99.90
26621;DHT22;14253;44.840;10.444;2023-11-22T10:49:11;11.50;99.90
26621;DHT22;14253;44.840;10.444;2023-11-22T10:51:39;11.50;99.90
26621;DHT22;14253;44.840;10.444;2023-11-22T10:54:07;11.50;99.90
26621;DHT22;14253;44.840;10.444;2023-11-22T10:56:38;11.60;99.90
26621;DHT22;14253;44.840;10.444;2023-11-22T10:59:13;11.60;99.90
26621;DHT22;14253;44.840;10.444;2023-11-22T11:01:44;11.70;99.90
26621;DHT22;14253;44.840;10.444;2023-11-22T11:04:29;11.70;99.90
26621;DHT22;14253;44.840;10.444;2023-11-22T11:07:00;11.80;99.90
26621;DHT22;14253;44.840;10.444;2023-11-22T11:09:27;11.90;99.90
26621;DHT22;14253;44.840;10.444;2023-11-22T11:11:58;12.00;99.90
26621;DHT22;14253;44.840;10.444;2023-11-22T11:14:26;12.20;99.90
26621;DHT22;14253;44.840;10.444;2023-11-22T11:16:53;12.20;99.90
26621;DHT22;14253;44.840;10.444;2023-11-22T11:19:21;12.40;99.90
26621;DHT22;14253;44.840;10.444;2023-11-22T11:21:48;12.40;99.90
26621;DHT22;14253;44.840;10.444;2023-11-22T11:24:14;12.60;99.90
26621;DHT22;14253;44.840;10.444;2023-11-22T11:26:40;12.60;99.90
26621;DHT22;14253;44.840;10.444;2023-11-22T11:29:29;12.80;99.90
26621;DHT22;14253;44.840;10.444;2023-11-22T11:31:56;12.90;99.90
26621;DHT22;14253;44.840;10.444;2023-11-22T11:34:23;12.90;99.90
26621;DHT22;14253;44.840;10.444;2023-11-22T11:36:53;13.00;99.90
26621;DHT22;14253;44.840;10.444;2023-11-22T11:39:28;13.00;99.90
26621;DHT22;14253;44.840;10.444;2023-11-22T11:42:10;13.10;99.90
26621;DHT22;14253;44.840;10.444;2023-11-22T11:44:36;13.00;99.90
26621;DHT22;14253;44.840;10.444;2023-11-22T11:47:10;13.10;99.90
26621;DHT22;14253;44.840;10.444;2023-11-22T11:49:39;13.10;99.90
26621;DHT22;14253;44.840;10.444;2023-11-22T11:52:06;13.10;99.90
26621;DHT22;14253;44.840;10.444;2023-11-22T11:54:33;13.30;99.90
26621;DHT22;14253;44.840;10.444;2023-11-22T11:57:01;13.30;99.90
26621;DHT22;14253;44.840;10.444;2023-11-22T11:59:27;13.50;99.90
26621;DHT22;14253;44.840;10.444;2023-11-22T12:01:55;13.50;99.90
26621;DHT22;14253;44.840;10.444;2023-11-22T12:04:23;13.70;99.90
26621;DHT22;14253;44.840;10.444;2023-11-22T12:06:50;13.70;99.90
26621;DHT22;14253;44.840;10.444;2023-11-22T12:09:25;13.70;99.90
26621;DHT22;14253;44.840;10.444;2023-11-22T12:11:52;13.70;99.90
26621;DHT22;14253;44.840;10.444;2023-11-22T12:14:20;13.80;99.90
26621;DHT22;14253;44.840;10.444;2023-11-22T12:16:46;13.80;99.90
26621;DHT22;14253;44.840;10.444;2023-11-22T12:19:24;13.90;99.90
26621;DHT22;14253;44.840;10.444;2023-11-22T12:34:15;14.10;99.90
26621;DHT22;14253;44.840;10.444;2023-11-22T12:47:57;14.60;99.90
26621;DHT22;14253;44.840;10.444;2023-11-22T12:50:37;14.70;99.90
26621;DHT22;14253;44.840;10.444;2023-11-22T12:53:09;14.80;99.90
26621;DHT22;14253;44.840;10.444;2023-11-22T12:55:46;14.90;99.90
26621;DHT22;14253;44.840;10.444;2023-11-22T12:58:22;14.90;99.90
26621;DHT22;14253;44.840;10.444;2023-11-22T13:00:50;14.90;99.90
26621;DHT22;14253;44.840;10.444;2023-11-22T13:03:16;15.00;99.90
26621;DHT22;14253;44.840;10.444;2023-11-22T13:05:44;15.00;99.90
26621;DHT22;14253;44.840;10.444;2023-11-22T13:08:11;14.90;99.90
26621;DHT22;14253;44.840;10.444;2023-11-22T13:10:49;15.00;99.90
26621;DHT22;14253;44.840;10.444;2023-11-22T13:13:22;15.00;99.90
26621;DHT22;14253;44.840;10.444;2023-11-22T13:15:49;15.00;99.90
26621;DHT22;14253;44.840;10.444;2023-11-22T13:18:15;14.90;99.90
26621;DHT22;14253;44.840;10.444;2023-11-22T13:20:45;14.90;99.90
26621;DHT22;14253;44.840;10.444;2023-11-22T13:23:11;15.00;99.90
26621;DHT22;14253;44.840;10.444;2023-11-22T13:25:38;14.90;99.90
26621;DHT22;14253;44.840;10.444;2023-11-22T13:28:04;15.00;99.90
26621;DHT22;14253;44.840;10.444;2023-11-22T13:30:31;15.00;99.90
26621;DHT22;14253;44.840;10.444;2023-11-22T13:32:58;15.10;99.90
26621;DHT22;14253;44.840;10.444;2023-11-22T13:35:25;15.10;99.90
26621;DHT22;14253;44.840;10.444;2023-11-22T13:37:53;15.10;99.90
26621;DHT22;14253;44.840;10.444;2023-11-22T13:40:20;15.20;99.90
26621;DHT22;14253;44.840;10.444;2023-11-22T13:42:50;15.20;99.90
26621;DHT22;14253;44.840;10.444;2023-11-22T13:45:19;15.20;99.90
26621;DHT22;14253;44.840;10.444;2023-11-22T13:47:53;15.20;99.90
26621;DHT22;14253;44.840;10.444;2023-11-22T13:50:40;15.10;99.90
26621;DHT22;14253;44.840;10.444;2023-11-22T13:53:06;15.10;99.90
26621;DHT22;14253;44.840;10.444;2023-11-22T13:55:34;15.00;99.90
26621;DHT22;14253;44.840;10.444;2023-11-22T13:58:02;14.90;99.90
26621;DHT22;14253;44.840;10.444;2023-11-22T14:00:30;14.90;99.90
26621;DHT22;14253;44.840;10.444;2023-11-22T14:03:01;14.70;99.90
26621;DHT22;14253;44.840;10.444;2023-11-22T14:05:37;14.70;99.90
26621;DHT22;14253;44.840;10.444;2023-11-22T14:08:04;14.60;99.90
26621;DHT22;14253;44.840;10.444;2023-11-22T14:10:31;14.40;99.90
26621;DHT22;14253;44.840;10.444;2023-11-22T14:12:58;14.40;99.90
26621;DHT22;14253;44.840;10.444;2023-11-22T14:15:26;14.20;99.90
26621;DHT22;14253;44.840;10.444;2023-11-22T14:17:55;14.20;99.90
26621;DHT22;14253;44.840;10.444;2023-11-22T14:20:21;14.00;99.90
26621;DHT22;14253;44.840;10.444;2023-11-22T14:22:47;14.00;99.90
26621;DHT22;14253;44.840;10.444;2023-11-22T14:25:13;13.90;99.90
26621;DHT22;14253;44.840;10.444;2023-11-22T14:27:46;13.80;99.90
26621;DHT22;14253;44.840;10.444;2023-11-22T14:30:13;13.70;99.90
26621;DHT22;14253;44.840;10.444;2023-11-22T14:32:41;13.60;99.90
26621;DHT22;14253;44.840;10.444;2023-11-22T14:35:10;13.60;99.90
26621;DHT22;14253;44.840;10.444;2023-11-22T14:37:36;13.50;99.90
26621;DHT22;14253;44.840;10.444;2023-11-22T14:40:08;13.40;99.90
26621;DHT22;14253;44.840;10.444;2023-11-22T14:42:43;13.30;99.90
26621;DHT22;14253;44.840;10.444;2023-11-22T14:45:11;13.20;99.90
26621;DHT22;14253;44.840;10.444;2023-11-22T14:47:40;13.20;99.90
26621;DHT22;14253;44.840;10.444;2023-11-22T14:50:08;13.20;99.90
26621;DHT22;14253;44.840;10.444;2023-11-22T14:52:38;13.10;99.90
26621;DHT22;14253;44.840;10.444;2023-11-22T14:55:04;13.00;99.90
26621;DHT22;14253;44.840;10.444;2023-11-22T14:57:31;12.90;99.90
26621;DHT22;14253;44.840;10.444;2023-11-22T14:59:57;12.90;99.90
26621;DHT22;14253;44.840;10.444;2023-11-22T15:02:23;12.80;99.90
26621;DHT22;14253;44.840;10.444;2023-11-22T15:04:49;12.80;99.90
26621;DHT22;14253;44.840;10.444;2023-11-22T15:07:15;12.70;99.90
26621;DHT22;14253;44.840;10.444;2023-11-22T15:09:41;12.70;99.90
26621;DHT22;14253;44.840;10.444;2023-11-22T15:12:07;12.70;99.90
26621;DHT22;14253;44.840;10.444;2023-11-22T15:14:35;12.60;99.90
26621;DHT22;14253;44.840;10.444;2023-11-22T15:17:01;12.50;99.90
26621;DHT22;14253;44.840;10.444;2023-11-22T15:19:31;12.40;99.90
26621;DHT22;14253;44.840;10.444;2023-11-22T15:21:57;12.40;99.90
26621;DHT22;14253;44.840;10.444;2023-11-22T15:24:24;12.30;99.90
26621;DHT22;14253;44.840;10.444;2023-11-22T15:26:50;12.20;99.90
26621;DHT22;14253;44.840;10.444;2023-11-22T15:29:16;12.10;99.90
26621;DHT22;14253;44.840;10.444;2023-11-22T15:31:43;12.00;99.90
26621;DHT22;14253;44.840;10.444;2023-11-22T15:34:10;11.90;99.90
26621;DHT22;14253;44.840;10.444;2023-11-22T15:36:39;11.80;99.90
26621;DHT22;14253;44.840;10.444;2023-11-22T15:39:05;11.70;99.90
26621;DHT22;14253;44.840;10.444;2023-11-22T15:41:31;11.60;99.90
26621;DHT22;14253;44.840;10.444;2023-11-22T15:43:58;11.40;99.90
26621;DHT22;14253;44.840;10.444;2023-11-22T15:46:23;11.30;99.90
26621;DHT22;14253;44.840;10.444;2023-11-22T15:48:53;11.20;99.90
26621;DHT22;14253;44.840;10.444;2023-11-22T15:51:19;11.20;99.90